Parsons Landing, Santa Catalina Island Weather observations

Data are for 10 minute period ending at time listed.
 Day   Time   Solar   Ave.   Ave.  Ave.  Vector    Max.   Stn.   Total 
  of    of     Rad.   Air    Rel.  Wind   Wind     Wind   Baro. Precip. 
Year   Day            Temp.  Hum.  Speed  Dir.     Gust   Pres.         
2016   (PST)   W/m2    F      %     mph   deg.      mph    mb.    in.   
------------------------------------------------------------------------
 149    1:30  999.0   999  999.0   999    999.0   999.0    999.0 999.00  
 149    1:40  999.0   999  999.0   999    999.0   999.0    999.0 999.00  
 149    1:50  999.0   999  999.0   999    999.0   999.0    999.0 999.00  
 149    2:00  999.0   999  999.0   999    999.0   999.0    999.0 999.00  
 149    2:10  999.0   999  999.0   999    999.0   999.0    999.0 999.00  
 149    2:20  999.0   999  999.0   999    999.0   999.0    999.0 999.00  
 149    2:30    0.0    58   92.0     4    205.0     6.0    999.0   0.00  
 149    2:40    0.0    58   92.1     1    233.3     3.0    999.0   0.00  
 149    2:50    0.0    58   91.9     1     17.5     3.0    999.0   0.00  
 149    3:00    0.0    58   91.7     1    208.2     2.4    999.0   0.00  
 149    3:10    0.0    58   91.6     2    306.7     3.6    999.0   0.00  
 149    3:20    0.0    58   91.7     2     18.7     4.2    999.0   0.00  
 149    3:30    0.0    58   92.0     1    283.2     3.0    999.0   0.00  
 149    3:40    0.0    58   92.2     4    252.0     7.2    999.0   0.00  
 149    3:50    0.0    57   92.4     4    213.4     6.0    999.0   0.00  
 149    4:00    0.0    57   92.5     4    212.3     6.6    999.0   0.00  
 149    4:10    0.0    57   92.5     4    222.2     6.0    999.0   0.00  
 149    4:20    0.0    57   92.4     4    212.8     6.6    999.0   0.00  
 149    4:30    0.0    57   92.3     5    217.5     7.2    999.0   0.00  
 149    4:40    0.0    57   92.2     6    208.2     7.2    999.0   0.00  
 149    4:50    2.0    57   92.0     6    209.0     7.8    999.0   0.00  
 149    5:00    3.0    57   92.1     5    198.0     7.2    999.0   0.00  
 149    5:10    3.0    57   92.0     5    196.3     7.2    999.0   0.00  
 149    5:20    8.0    57   91.4     7    197.0     9.6    999.0   0.00  
 149    5:30   10.0    57   91.5     7    195.5     9.6    999.0   0.00  
 149    5:40   16.0    57   91.6     7    196.6     9.0    999.0   0.00  
 149    5:50   19.0    58   90.9     6    200.7     8.4    999.0   0.00  
 149    6:00   22.0    58   90.8     6    201.3     7.8    999.0   0.00  
 149    6:10   26.0    58   90.3     4    189.8     6.0    999.0   0.00  
 149    6:20   34.0    58   89.9     3    166.0     4.8    999.0   0.00  
 149    6:30   45.0    58   89.4     4    179.9     6.6    999.0   0.00  
 149    6:40   58.0    59   88.5     3    208.7     4.8    999.0   0.00  
 149    6:50   70.0    59   87.0     3    191.4     6.0    999.0   0.00  
 149    7:00   71.0    60   85.2     3    210.5     4.2    999.0   0.00  
 149    7:10   83.0    60   83.9     2     72.3     3.6    999.0   0.00  
 149    7:20  115.0    61   82.9     1     41.5     4.2    999.0   0.00  
 149    7:30  120.0    61   81.6     2     19.7     4.8    999.0   0.00  
 149    7:40  131.0    62   81.7     2    311.9     4.2    999.0   0.00  
 149    7:50  175.0    61   82.1     3    275.6     7.8    999.0   0.00  
 149    8:00  178.0    61   82.4     6    207.6    11.3    999.0   0.00  
 149    8:10  155.0    60   84.9     6    184.5    10.2    999.0   0.00  
 149    8:20  207.0    61   82.7     4    182.1     7.2    999.0   0.00  
 149    8:30  261.0    62   79.2     4     92.1     7.8    999.0   0.00  
 149    8:40  287.0    62   78.0     4    107.5     9.0    999.0   0.00  
 149    8:50  263.0    64   75.9     4     75.7     8.4    999.0   0.00  
 149    9:00  270.0    62   77.9     4     88.6     8.4    999.0   0.00  
 149    9:10  279.0    64   75.9     6     71.2     9.6    999.0   0.00  
 149    9:20  308.0    64   73.9     6     48.2     9.0    999.0   0.00  
 149    9:30  412.0    65   72.7     7     57.5    11.3    999.0   0.00  
 149    9:40  588.0    66   70.7     8     59.5    11.3    999.0   0.00  
 149    9:50  447.0    66   71.0     7     66.2    10.8    999.0   0.00  
 149   10:00  484.0    66   70.6     7     71.7    11.3    999.0   0.00  
 149   10:10  395.0    66   70.5     6     70.0    11.3    999.0   0.00  
 149   10:20  388.0    66   70.6     7     50.5    10.8    999.0   0.00  
 149   10:30  418.0    66   71.2     7     60.3    11.9    999.0   0.00  
 149   10:40  396.0    66   71.1     6     59.7    10.2    999.0   0.00  
 149   10:50  463.0    66   71.4     6     63.0     9.0    999.0   0.00  
 149   11:00  414.0    67   69.8     4      6.2     7.8    999.0   0.00  
 149   11:10  494.0    66   71.6     4     22.0    12.5    999.0   0.00  
 149   11:20  487.0    68   66.9     5     37.3     9.0    999.0   0.00  
 149   11:30  399.0    67   69.1     6     37.0    10.2    999.0   0.00  
 149   11:40  469.0    69   66.7     6     24.0     8.4    999.0   0.00  
 149   11:50  553.0    68   68.6     6     34.1    10.2    999.0   0.00  
 149   12:00  624.0    67   68.6     6     41.0     9.6    999.0   0.00  
 149   12:10  654.0    68   66.4     6     35.8     9.0    999.0   0.00  
 149   12:20  496.0    69   67.3     5    338.2     8.4    999.0   0.00  
 149   12:30  351.0    67   71.8     6    321.7     9.6    999.0   0.00  
 149   12:40  424.0    65   76.0     4    261.4     7.8    999.0   0.00  
 149   12:50  453.0    66   72.6     5    308.9     9.6    999.0   0.00  
 149   13:00  481.0    65   74.0     7    268.9    14.3    999.0   0.00  
 149   13:10  615.0    64   74.2     9    234.7    15.5    999.0   0.00  
 149   13:20  825.0    65   72.3    12    215.7    18.5    999.0   0.00  
 149   13:30  717.0    63   76.0    14    219.1    19.7    999.0   0.00  
 149   13:40  742.0    62   77.6    14    213.8    18.5    999.0   0.00  
 149   13:50  999.0   999  999.0   999    999.0   999.0    999.0 999.00  
 149   14:00  999.0   999  999.0   999    999.0   999.0    999.0 999.00  
 149   14:10  999.0   999  999.0   999    999.0   999.0    999.0 999.00  
 149   14:20  999.0   999  999.0   999    999.0   999.0    999.0 999.00  
 149   14:30  999.0   999  999.0   999    999.0   999.0    999.0 999.00  
 149   14:40  999.0   999  999.0   999    999.0   999.0    999.0 999.00  
 149   14:50  999.0   999  999.0   999    999.0   999.0    999.0 999.00  
 149   15:00  999.0   999  999.0   999    999.0   999.0    999.0 999.00  
 149   15:10  999.0   999  999.0   999    999.0   999.0    999.0 999.00  
 149   15:20  999.0   999  999.0   999    999.0   999.0    999.0 999.00  
 149   15:30  999.0   999  999.0   999    999.0   999.0    999.0 999.00  
 149   15:40  999.0   999  999.0   999    999.0   999.0    999.0 999.00  
 149   15:50  999.0   999  999.0   999    999.0   999.0    999.0 999.00  
 149   16:00  999.0   999  999.0   999    999.0   999.0    999.0 999.00  
 149   16:10  999.0   999  999.0   999    999.0   999.0    999.0 999.00  
 149   16:20  999.0   999  999.0   999    999.0   999.0    999.0 999.00  
 149   16:30  999.0   999  999.0   999    999.0   999.0    999.0 999.00  
 149   16:40  999.0   999  999.0   999    999.0   999.0    999.0 999.00  
 149   16:50  999.0   999  999.0   999    999.0   999.0    999.0 999.00  
 149   17:00  999.0   999  999.0   999    999.0   999.0    999.0 999.00  
 149   17:10  999.0   999  999.0   999    999.0   999.0    999.0 999.00  
 149   17:20  999.0   999  999.0   999    999.0   999.0    999.0 999.00  
 149   17:30  999.0   999  999.0   999    999.0   999.0    999.0 999.00  
 149   17:40  999.0   999  999.0   999    999.0   999.0    999.0 999.00  
 149   17:50  999.0   999  999.0   999    999.0   999.0    999.0 999.00  
 149   18:00  999.0   999  999.0   999    999.0   999.0    999.0 999.00  
 149   18:10  999.0   999  999.0   999    999.0   999.0    999.0 999.00  
 149   18:20  999.0   999  999.0   999    999.0   999.0    999.0 999.00  
 149   18:30   40.0    60   79.0     7    194.5    10.8    999.0   0.00  
 149   18:40   24.0    59   80.2     7    203.7    14.3    999.0   0.00  
 149   18:50   11.0    58   83.6    10    222.6    14.9    999.0   0.00  
 149   19:00    4.0    58   85.2    11    214.7    15.5    999.0   0.00  
 149   19:10    3.0    57   85.9    10    218.2    13.7    999.0   0.00  
 149   19:20    2.0    57   86.1    10    216.9    13.1    999.0   0.00  
 149   19:30    0.0    58   86.0     6    205.9    10.2    999.0   0.00  
 149   19:40    0.0    58   85.1     5    206.8     9.6    999.0   0.00  
 149   19:50    0.0    58   85.2     3    200.7     5.4    999.0   0.00  
 149   20:00    0.0    57   85.9     3    191.5     4.8    999.0   0.00  
 149   20:10    0.0    58   85.2     4    211.6     6.0    999.0   0.00  
 149   20:20    0.0    58   85.8     5    214.0    10.8    999.0   0.00  
 149   20:30    0.0    58   85.7     4    213.9     8.4    999.0   0.00  
 149   20:40    0.0    58   85.3     2    194.7     4.8    999.0   0.00  
 149   20:50    0.0    59   84.9     3    230.7     6.0    999.0   0.00  
 149   21:00    0.0    59   84.7     3    158.4     5.4    999.0   0.00  
 149   21:10    0.0    59   84.4     4    182.6     4.8    999.0   0.00  
 149   21:20    0.0    60   84.2     4    182.0     7.8    999.0   0.00  
 149   21:30    0.0    60   84.2     5    175.3     7.2    999.0   0.00  
 149   21:40    0.0    60   84.1     3    175.9     6.0    999.0   0.00  
 149   21:50    0.0    60   83.8     2    133.7     4.8    999.0   0.00  
 149   22:00    0.0    60   83.5     2    118.6     4.2    999.0   0.00  
 149   22:10    0.0    60   83.6     3    104.1     5.4    999.0   0.00  
 149   22:20    0.0    60   83.6     3    105.9     6.0    999.0   0.00  
 149   22:30    0.0    60   83.5     3    120.8     4.8    999.0   0.00  
 149   22:40    0.0    60   83.4     2    123.9     4.2    999.0   0.00  
 149   22:50    0.0    60   83.2     2    102.6     3.6    999.0   0.00  
 149   23:00    0.0    60   82.9     3    150.1     5.4    999.0   0.00  
 149   23:10    0.0    60   82.9     4    168.2     6.0    999.0   0.00  
 149   23:20    0.0    60   83.1     4    160.3     6.0    999.0   0.00  
 149   23:30    0.0    60   83.3     3    148.9     4.8    999.0   0.00  
 149   23:40    0.0    60   83.3     2    125.2     4.8    999.0   0.00  
 149   23:50    0.0    60   83.6     3    100.6     6.0    999.0   0.00  
 150    0:00    0.0    60   84.1     3    111.0     4.8    999.0   0.00  
 150    0:10    0.0    60   84.4     3    109.3     6.0    999.0   0.00  
 150    0:20    0.0    59   84.7     3     94.1     4.8    999.0   0.00  
 150    0:30    0.0    59   84.8     3    120.4     4.8    999.0   0.00  
 150    0:40    0.0    59   84.7     3    136.4     4.2    999.0   0.00  
 150    0:50    0.0    59   84.8     3    123.5     5.4    999.0   0.00  
 150    1:00    0.0    60   84.9     4    120.5     6.0    999.0   0.00  
 150    1:10    0.0    59   85.1     3    115.1     5.4    999.0   0.00  
 150    1:20    0.0    59   85.1     3     57.2     4.8    999.0   0.00  

Return to Parsons Landing graphs page.


Western Regional Climate Center,wrcc@dri.edu